Liberty Lake, WA

3:14 AM PDT on August 30, 2014 (GMT -0700)
Liberty Lake | Change Station
CLOSE
Current Station
Personal Weather Station
Location: Liberty Lake, WA
Elevation: 2838 ft
Nearby Weather Stations

Elev 2838 ft 47.62 °N, 117.09 °W | Updated 4 minutes ago

Clear
Clear
58.4 °F
Feels Like 58.4 °F
N
5.0
Wind Variable Wind from SSW
Gusts 9.0 mph

Today
High -- | Low -- °F
--% Chance of Precip.
Yesterday
High -- | Low -- °F
Precip. -- in
6:04 AM 7:32 PM
Waxing Crescent, 21% visible
Pressure 29.80 in
Visibility 10.0 miles
Clouds Clear
Dew Point 39 °F
Humidity 49%
Rainfall 0.00 in
Snow Depth Not available.
UV 0 out of 12
Pollen 7.30 out of 12
PM2.5 Good
Flu Activity Not available.
METAR KSFF 300953Z AUTO 22007KT 10SM CLR 16/06 A2984 RMK AO2 SLP091 T01560056

More Conditions Fewer Conditions

Pressure 29.80 in
Visibility 10.0 miles
Clouds Clear
Dew Point 39 °F
Humidity 49%
Rainfall 0.00 in
Snow Depth Not available.
UV 0 out of 12
Pollen 7.30 out of 12
PM2.5 Good
Flu Activity Not available.
METAR KSFF 300953Z AUTO 22007KT 10SM CLR 16/06 A2984 RMK AO2 SLP091 T01560056

More Conditions Fewer Conditions

10-Day Weather Forecast

Almanac

Astronomy

Aug. 30, 2014 Rise Set
Actual Time 6:04 AM PDT 7:32 PM PDT
Civil Twilight 5:32 AM PDT 8:04 PM PDT
Nautical Twilight 4:53 AM PDT 8:43 PM PDT
Astronomical Twilight 4:10 AM PDT 9:25 PM PDT
Moon 11:19 AM PDT 9:45 PM PDT
Length of Visible Light 14h 32m
Length of Day
13h 28m
Tomorrow will be 3m 17s shorter.
Waxing Crescent, 21% of the Moon is Illuminated
Today
Waxing Crescent
Sep 2
First Quarter
Sep 8
Full
Sep 15
Last Quarter
Sep 24
New

Today's Extremes

State Highs State Lows

Community

WunderPhotos

Upload Photos

1,748,481 photos uploaded!

Nearby

Air Quality

  Air Quality AQ Index Pollutant
Yesterday Good
OZONE
Yesterday Good
PM10
Current Good
PM2.5
Saturday Good
PM10
Saturday Good
OZONE
Sunday Good
PM10
Sunday Good
OZONE
Monday Good
PM10
Monday Good
OZONE

Snow Depth

Station Depth Elevation
Quartz Peak 1 in 4700 ft
Bunchgrass Meadow 0 in 5000 ft
Sourdough Gulch 0 in 4000 ft
Spruce Springs 0 in 5700 ft
Sentinel Butte 0 in 4920 ft

Earthquake Activity

City Distance Mag. Time & Date
No recent earthquake activity has been reported nearby.
Minimum magnitude displayed is 2.5.

Coastal Water Temperatures

Place Temperature
No Stations Reporting

Nearby Weather Stations